sensor_id;sensor_type;location;lat;lon;timestamp;temperature;humidity
2631;DHT22;1325;48.414;9.952;2022-08-05T00:00:26;24.20;99.90
2631;DHT22;1325;48.414;9.952;2022-08-05T00:02:53;24.20;99.90
2631;DHT22;1325;48.414;9.952;2022-08-05T00:05:21;24.20;99.90
2631;DHT22;1325;48.414;9.952;2022-08-05T00:07:49;24.20;99.90
2631;DHT22;1325;48.414;9.952;2022-08-05T00:10:16;24.20;99.90
2631;DHT22;1325;48.414;9.952;2022-08-05T00:12:45;24.30;99.90
2631;DHT22;1325;48.414;9.952;2022-08-05T00:15:13;24.20;99.90
2631;DHT22;1325;48.414;9.952;2022-08-05T00:17:40;24.10;99.90
2631;DHT22;1325;48.414;9.952;2022-08-05T00:20:08;24.10;99.90
2631;DHT22;1325;48.414;9.952;2022-08-05T00:22:36;24.10;99.90
2631;DHT22;1325;48.414;9.952;2022-08-05T00:25:03;24.00;99.90
2631;DHT22;1325;48.414;9.952;2022-08-05T00:27:31;24.00;99.90
2631;DHT22;1325;48.414;9.952;2022-08-05T00:30:00;23.80;99.90
2631;DHT22;1325;48.414;9.952;2022-08-05T00:32:27;23.50;99.90
2631;DHT22;1325;48.414;9.952;2022-08-05T00:34:55;23.40;99.90
2631;DHT22;1325;48.414;9.952;2022-08-05T00:37:22;23.70;99.90
2631;DHT22;1325;48.414;9.952;2022-08-05T00:39:49;23.80;99.90
2631;DHT22;1325;48.414;9.952;2022-08-05T00:42:29;23.80;99.90
2631;DHT22;1325;48.414;9.952;2022-08-05T00:44:56;23.80;99.90
2631;DHT22;1325;48.414;9.952;2022-08-05T00:47:25;23.80;99.90
2631;DHT22;1325;48.414;9.952;2022-08-05T00:49:52;23.80;99.90
2631;DHT22;1325;48.414;9.952;2022-08-05T00:52:19;23.70;99.90
2631;DHT22;1325;48.414;9.952;2022-08-05T00:54:47;23.70;99.90
2631;DHT22;1325;48.414;9.952;2022-08-05T00:57:15;23.80;99.90
2631;DHT22;1325;48.414;9.952;2022-08-05T00:59:42;23.60;99.90
2631;DHT22;1325;48.414;9.952;2022-08-05T01:02:09;23.10;99.90
2631;DHT22;1325;48.414;9.952;2022-08-05T01:04:38;23.30;99.90
2631;DHT22;1325;48.414;9.952;2022-08-05T01:07:06;23.60;99.90
2631;DHT22;1325;48.414;9.952;2022-08-05T01:09:33;23.70;99.90
2631;DHT22;1325;48.414;9.952;2022-08-05T01:12:05;23.10;99.90
2631;DHT22;1325;48.414;9.952;2022-08-05T01:14:39;23.10;99.90
2631;DHT22;1325;48.414;9.952;2022-08-05T01:17:13;23.30;99.90
2631;DHT22;1325;48.414;9.952;2022-08-05T01:19:51;23.30;99.90
2631;DHT22;1325;48.414;9.952;2022-08-05T01:22:31;23.40;99.90
2631;DHT22;1325;48.414;9.952;2022-08-05T01:25:48;22.80;99.90
2631;DHT22;1325;48.414;9.952;2022-08-05T01:28:25;22.20;99.90
2631;DHT22;1325;48.414;9.952;2022-08-05T01:30:58;22.60;99.90
2631;DHT22;1325;48.414;9.952;2022-08-05T01:33:33;23.20;99.90
2631;DHT22;1325;48.414;9.952;2022-08-05T01:36:07;23.20;99.90
2631;DHT22;1325;48.414;9.952;2022-08-05T01:38:37;23.00;99.90
2631;DHT22;1325;48.414;9.952;2022-08-05T01:41:05;23.00;99.90
2631;DHT22;1325;48.414;9.952;2022-08-05T01:43:34;22.70;99.90
2631;DHT22;1325;48.414;9.952;2022-08-05T01:46:03;23.00;99.90
2631;DHT22;1325;48.414;9.952;2022-08-05T01:48:33;22.70;99.90
2631;DHT22;1325;48.414;9.952;2022-08-05T01:51:02;23.00;99.90
2631;DHT22;1325;48.414;9.952;2022-08-05T01:53:31;23.00;99.90
2631;DHT22;1325;48.414;9.952;2022-08-05T01:56:01;22.80;99.90
2631;DHT22;1325;48.414;9.952;2022-08-05T01:58:30;22.90;99.90
2631;DHT22;1325;48.414;9.952;2022-08-05T02:01:01;22.90;99.90
2631;DHT22;1325;48.414;9.952;2022-08-05T02:03:32;22.80;99.90
2631;DHT22;1325;48.414;9.952;2022-08-05T02:06:03;22.90;99.90
2631;DHT22;1325;48.414;9.952;2022-08-05T02:08:32;23.00;99.90
2631;DHT22;1325;48.414;9.952;2022-08-05T02:11:04;22.80;99.90
2631;DHT22;1325;48.414;9.952;2022-08-05T02:13:39;22.60;99.90
2631;DHT22;1325;48.414;9.952;2022-08-05T02:16:25;22.60;99.90
2631;DHT22;1325;48.414;9.952;2022-08-05T02:18:59;22.60;99.90
2631;DHT22;1325;48.414;9.952;2022-08-05T02:21:30;22.50;99.90
2631;DHT22;1325;48.414;9.952;2022-08-05T02:24:05;21.80;99.90
2631;DHT22;1325;48.414;9.952;2022-08-05T02:26:37;21.20;99.90
2631;DHT22;1325;48.414;9.952;2022-08-05T02:29:16;21.00;99.90
2631;DHT22;1325;48.414;9.952;2022-08-05T02:31:47;21.30;99.90
2631;DHT22;1325;48.414;9.952;2022-08-05T02:34:15;21.70;99.90
2631;DHT22;1325;48.414;9.952;2022-08-05T02:36:48;21.70;99.90
2631;DHT22;1325;48.414;9.952;2022-08-05T02:39:19;21.70;99.90
2631;DHT22;1325;48.414;9.952;2022-08-05T02:41:48;21.80;99.90
2631;DHT22;1325;48.414;9.952;2022-08-05T02:44:18;21.80;99.90
2631;DHT22;1325;48.414;9.952;2022-08-05T02:46:48;22.00;99.90
2631;DHT22;1325;48.414;9.952;2022-08-05T02:49:16;22.20;99.90
2631;DHT22;1325;48.414;9.952;2022-08-05T02:51:44;21.80;99.90
2631;DHT22;1325;48.414;9.952;2022-08-05T02:54:12;22.00;99.90
2631;DHT22;1325;48.414;9.952;2022-08-05T02:56:42;22.30;99.90
2631;DHT22;1325;48.414;9.952;2022-08-05T02:59:11;22.10;99.90
2631;DHT22;1325;48.414;9.952;2022-08-05T03:01:40;22.20;99.90
2631;DHT22;1325;48.414;9.952;2022-08-05T03:04:10;21.90;99.90
2631;DHT22;1325;48.414;9.952;2022-08-05T03:06:40;21.80;99.90
2631;DHT22;1325;48.414;9.952;2022-08-05T03:09:10;22.00;99.90
2631;DHT22;1325;48.414;9.952;2022-08-05T03:11:41;22.10;99.90
2631;DHT22;1325;48.414;9.952;2022-08-05T03:14:09;21.70;99.90
2631;DHT22;1325;48.414;9.952;2022-08-05T03:16:37;21.10;99.90
2631;DHT22;1325;48.414;9.952;2022-08-05T03:19:06;21.30;99.90
2631;DHT22;1325;48.414;9.952;2022-08-05T03:21:33;21.60;99.90
2631;DHT22;1325;48.414;9.952;2022-08-05T03:24:01;20.60;99.90
2631;DHT22;1325;48.414;9.952;2022-08-05T03:26:29;20.20;99.90
2631;DHT22;1325;48.414;9.952;2022-08-05T03:28:56;19.90;99.90
2631;DHT22;1325;48.414;9.952;2022-08-05T03:31:25;20.10;99.90
2631;DHT22;1325;48.414;9.952;2022-08-05T03:33:52;20.90;99.90
2631;DHT22;1325;48.414;9.952;2022-08-05T03:36:21;21.10;99.90
2631;DHT22;1325;48.414;9.952;2022-08-05T03:38:48;20.80;99.90
2631;DHT22;1325;48.414;9.952;2022-08-05T03:41:15;20.50;99.90
2631;DHT22;1325;48.414;9.952;2022-08-05T03:43:43;20.70;99.90
2631;DHT22;1325;48.414;9.952;2022-08-05T03:46:10;20.70;99.90
2631;DHT22;1325;48.414;9.952;2022-08-05T03:48:37;21.00;99.90
2631;DHT22;1325;48.414;9.952;2022-08-05T03:51:11;21.10;99.90
2631;DHT22;1325;48.414;9.952;2022-08-05T03:53:47;21.10;99.90
2631;DHT22;1325;48.414;9.952;2022-08-05T03:56:23;20.80;99.90
2631;DHT22;1325;48.414;9.952;2022-08-05T03:58:54;21.30;99.90
2631;DHT22;1325;48.414;9.952;2022-08-05T04:01:24;21.60;99.90
2631;DHT22;1325;48.414;9.952;2022-08-05T04:03:53;21.60;99.90
2631;DHT22;1325;48.414;9.952;2022-08-05T04:06:21;21.80;99.90
2631;DHT22;1325;48.414;9.952;2022-08-05T04:08:50;22.10;99.90
2631;DHT22;1325;48.414;9.952;2022-08-05T04:11:18;22.20;99.90
2631;DHT22;1325;48.414;9.952;2022-08-05T04:13:46;22.30;99.90
2631;DHT22;1325;48.414;9.952;2022-08-05T04:16:14;22.40;99.90
2631;DHT22;1325;48.414;9.952;2022-08-05T04:18:44;22.60;99.90
2631;DHT22;1325;48.414;9.952;2022-08-05T04:21:11;22.60;99.90
2631;DHT22;1325;48.414;9.952;2022-08-05T04:23:38;22.70;99.90
2631;DHT22;1325;48.414;9.952;2022-08-05T04:26:07;22.60;99.90
2631;DHT22;1325;48.414;9.952;2022-08-05T04:28:34;22.20;99.90
2631;DHT22;1325;48.414;9.952;2022-08-05T04:31:02;22.40;99.90
2631;DHT22;1325;48.414;9.952;2022-08-05T04:33:29;22.50;99.90
2631;DHT22;1325;48.414;9.952;2022-08-05T04:35:57;22.70;99.90
2631;DHT22;1325;48.414;9.952;2022-08-05T04:38:24;22.80;99.90
2631;DHT22;1325;48.414;9.952;2022-08-05T04:40:52;22.50;99.90
2631;DHT22;1325;48.414;9.952;2022-08-05T04:43:20;22.30;99.90
2631;DHT22;1325;48.414;9.952;2022-08-05T04:45:47;22.00;99.90
2631;DHT22;1325;48.414;9.952;2022-08-05T04:48:15;22.00;99.90
2631;DHT22;1325;48.414;9.952;2022-08-05T04:50:44;22.00;99.90
2631;DHT22;1325;48.414;9.952;2022-08-05T04:53:13;22.20;99.90
2631;DHT22;1325;48.414;9.952;2022-08-05T04:55:42;22.30;99.90
2631;DHT22;1325;48.414;9.952;2022-08-05T04:58:12;22.50;99.90
2631;DHT22;1325;48.414;9.952;2022-08-05T05:00:42;22.40;99.90
2631;DHT22;1325;48.414;9.952;2022-08-05T05:03:10;22.50;99.90
2631;DHT22;1325;48.414;9.952;2022-08-05T05:05:37;22.30;99.90
2631;DHT22;1325;48.414;9.952;2022-08-05T05:08:07;22.40;99.90
2631;DHT22;1325;48.414;9.952;2022-08-05T05:10:38;22.50;99.90
2631;DHT22;1325;48.414;9.952;2022-08-05T05:13:08;22.30;99.90
2631;DHT22;1325;48.414;9.952;2022-08-05T05:15:36;22.10;99.90
2631;DHT22;1325;48.414;9.952;2022-08-05T05:18:05;22.10;99.90
2631;DHT22;1325;48.414;9.952;2022-08-05T05:20:33;22.10;99.90
2631;DHT22;1325;48.414;9.952;2022-08-05T05:23:02;22.30;99.90
2631;DHT22;1325;48.414;9.952;2022-08-05T05:25:30;22.20;99.90
2631;DHT22;1325;48.414;9.952;2022-08-05T05:27:57;22.20;99.90
2631;DHT22;1325;48.414;9.952;2022-08-05T05:30:25;22.10;99.90
2631;DHT22;1325;48.414;9.952;2022-08-05T05:32:52;22.30;99.90
2631;DHT22;1325;48.414;9.952;2022-08-05T05:35:21;22.50;99.90
2631;DHT22;1325;48.414;9.952;2022-08-05T05:37:49;22.40;99.90
2631;DHT22;1325;48.414;9.952;2022-08-05T05:40:19;22.30;99.90
2631;DHT22;1325;48.414;9.952;2022-08-05T05:42:47;22.30;99.90
2631;DHT22;1325;48.414;9.952;2022-08-05T05:45:15;22.30;99.90
2631;DHT22;1325;48.414;9.952;2022-08-05T05:47:42;22.30;99.90
2631;DHT22;1325;48.414;9.952;2022-08-05T05:50:11;22.30;99.90
2631;DHT22;1325;48.414;9.952;2022-08-05T05:52:41;22.20;99.90
2631;DHT22;1325;48.414;9.952;2022-08-05T05:55:10;22.30;99.90
2631;DHT22;1325;48.414;9.952;2022-08-05T05:57:39;22.50;99.90
2631;DHT22;1325;48.414;9.952;2022-08-05T06:00:10;22.50;99.90
2631;DHT22;1325;48.414;9.952;2022-08-05T06:02:39;22.50;99.90
2631;DHT22;1325;48.414;9.952;2022-08-05T06:05:07;22.50;99.90
2631;DHT22;1325;48.414;9.952;2022-08-05T06:07:35;22.70;99.90
2631;DHT22;1325;48.414;9.952;2022-08-05T06:10:06;22.70;99.90
2631;DHT22;1325;48.414;9.952;2022-08-05T06:12:34;22.70;99.90
2631;DHT22;1325;48.414;9.952;2022-08-05T06:15:02;22.80;99.90
2631;DHT22;1325;48.414;9.952;2022-08-05T06:17:31;22.90;99.90
2631;DHT22;1325;48.414;9.952;2022-08-05T06:19:58;22.90;99.90
2631;DHT22;1325;48.414;9.952;2022-08-05T06:22:27;23.00;99.90
2631;DHT22;1325;48.414;9.952;2022-08-05T06:24:55;23.30;99.90
2631;DHT22;1325;48.414;9.952;2022-08-05T06:27:24;23.30;99.90
2631;DHT22;1325;48.414;9.952;2022-08-05T06:29:51;23.30;99.90
2631;DHT22;1325;48.414;9.952;2022-08-05T06:32:18;23.60;99.90
2631;DHT22;1325;48.414;9.952;2022-08-05T06:34:46;23.90;99.90
2631;DHT22;1325;48.414;9.952;2022-08-05T06:37:13;24.00;99.90
2631;DHT22;1325;48.414;9.952;2022-08-05T06:39:41;24.30;99.90
2631;DHT22;1325;48.414;9.952;2022-08-05T06:42:08;24.30;99.90
2631;DHT22;1325;48.414;9.952;2022-08-05T06:44:36;24.30;99.90
2631;DHT22;1325;48.414;9.952;2022-08-05T06:47:04;24.20;99.90
2631;DHT22;1325;48.414;9.952;2022-08-05T06:49:31;24.20;99.90
2631;DHT22;1325;48.414;9.952;2022-08-05T06:51:58;24.20;99.90
2631;DHT22;1325;48.414;9.952;2022-08-05T06:54:25;24.10;99.90
2631;DHT22;1325;48.414;9.952;2022-08-05T06:56:52;24.20;99.90
2631;DHT22;1325;48.414;9.952;2022-08-05T06:59:19;24.30;99.90
2631;DHT22;1325;48.414;9.952;2022-08-05T07:01:48;24.70;99.90
2631;DHT22;1325;48.414;9.952;2022-08-05T07:04:15;24.60;99.90
2631;DHT22;1325;48.414;9.952;2022-08-05T07:06:42;24.70;99.90
2631;DHT22;1325;48.414;9.952;2022-08-05T07:09:09;25.40;99.90
2631;DHT22;1325;48.414;9.952;2022-08-05T07:11:36;26.20;99.90
2631;DHT22;1325;48.414;9.952;2022-08-05T07:14:03;26.80;99.90
2631;DHT22;1325;48.414;9.952;2022-08-05T07:16:50;27.30;99.90
2631;DHT22;1325;48.414;9.952;2022-08-05T07:19:24;27.40;99.90
2631;DHT22;1325;48.414;9.952;2022-08-05T07:21:52;27.40;99.90
2631;DHT22;1325;48.414;9.952;2022-08-05T07:24:19;27.30;99.90
2631;DHT22;1325;48.414;9.952;2022-08-05T07:26:47;27.10;99.90
2631;DHT22;1325;48.414;9.952;2022-08-05T07:29:15;27.50;99.90
2631;DHT22;1325;48.414;9.952;2022-08-05T07:31:42;28.20;99.90
2631;DHT22;1325;48.414;9.952;2022-08-05T07:34:11;28.10;99.90
2631;DHT22;1325;48.414;9.952;2022-08-05T07:36:38;27.90;99.90
2631;DHT22;1325;48.414;9.952;2022-08-05T07:39:07;28.40;99.90
2631;DHT22;1325;48.414;9.952;2022-08-05T07:41:35;28.30;99.90
2631;DHT22;1325;48.414;9.952;2022-08-05T07:44:04;28.00;99.90
2631;DHT22;1325;48.414;9.952;2022-08-05T07:46:32;27.60;99.90
2631;DHT22;1325;48.414;9.952;2022-08-05T07:49:00;27.50;99.90
2631;DHT22;1325;48.414;9.952;2022-08-05T07:51:31;26.50;99.90
2631;DHT22;1325;48.414;9.952;2022-08-05T07:53:59;27.00;99.90
2631;DHT22;1325;48.414;9.952;2022-08-05T07:56:26;27.90;99.90
2631;DHT22;1325;48.414;9.952;2022-08-05T07:58:53;28.50;99.90
2631;DHT22;1325;48.414;9.952;2022-08-05T08:01:20;28.80;99.90
2631;DHT22;1325;48.414;9.952;2022-08-05T08:03:50;29.30;99.90
2631;DHT22;1325;48.414;9.952;2022-08-05T08:06:17;29.90;99.90
2631;DHT22;1325;48.414;9.952;2022-08-05T08:08:46;29.80;99.90
2631;DHT22;1325;48.414;9.952;2022-08-05T08:11:31;29.10;99.90
2631;DHT22;1325;48.414;9.952;2022-08-05T08:13:58;28.90;99.90
2631;DHT22;1325;48.414;9.952;2022-08-05T08:16:25;28.50;99.90
2631;DHT22;1325;48.414;9.952;2022-08-05T08:18:52;28.20;99.90
2631;DHT22;1325;48.414;9.952;2022-08-05T08:21:19;28.60;99.90
2631;DHT22;1325;48.414;9.952;2022-08-05T08:23:48;29.20;99.90
2631;DHT22;1325;48.414;9.952;2022-08-05T08:26:15;30.00;99.90
2631;DHT22;1325;48.414;9.952;2022-08-05T08:28:43;30.40;99.90
2631;DHT22;1325;48.414;9.952;2022-08-05T08:31:10;30.00;99.90
2631;DHT22;1325;48.414;9.952;2022-08-05T08:33:38;30.20;99.90
2631;DHT22;1325;48.414;9.952;2022-08-05T08:36:06;30.00;99.90
2631;DHT22;1325;48.414;9.952;2022-08-05T08:38:34;30.10;99.90
2631;DHT22;1325;48.414;9.952;2022-08-05T08:41:05;29.20;99.90
2631;DHT22;1325;48.414;9.952;2022-08-05T08:43:54;28.80;99.90
2631;DHT22;1325;48.414;9.952;2022-08-05T08:46:23;29.10;99.90
2631;DHT22;1325;48.414;9.952;2022-08-05T08:48:53;28.80;99.90
2631;DHT22;1325;48.414;9.952;2022-08-05T08:51:22;28.00;99.90
2631;DHT22;1325;48.414;9.952;2022-08-05T08:53:50;27.20;99.90
2631;DHT22;1325;48.414;9.952;2022-08-05T08:56:19;27.70;99.90
2631;DHT22;1325;48.414;9.952;2022-08-05T08:58:48;26.50;99.90
2631;DHT22;1325;48.414;9.952;2022-08-05T09:01:15;29.90;99.90
2631;DHT22;1325;48.414;9.952;2022-08-05T09:03:45;29.80;99.90
2631;DHT22;1325;48.414;9.952;2022-08-05T09:06:13;30.00;99.90
2631;DHT22;1325;48.414;9.952;2022-08-05T09:08:40;30.20;99.90
2631;DHT22;1325;48.414;9.952;2022-08-05T09:11:12;31.10;99.90
2631;DHT22;1325;48.414;9.952;2022-08-05T09:13:41;30.90;99.90
2631;DHT22;1325;48.414;9.952;2022-08-05T09:16:09;31.20;99.90
2631;DHT22;1325;48.414;9.952;2022-08-05T09:18:39;31.70;99.90
2631;DHT22;1325;48.414;9.952;2022-08-05T09:21:09;31.60;99.90
2631;DHT22;1325;48.414;9.952;2022-08-05T09:23:36;31.60;99.90
2631;DHT22;1325;48.414;9.952;2022-08-05T09:26:08;31.80;99.90
2631;DHT22;1325;48.414;9.952;2022-08-05T09:28:37;31.40;99.90
2631;DHT22;1325;48.414;9.952;2022-08-05T09:31:08;31.20;99.90
2631;DHT22;1325;48.414;9.952;2022-08-05T09:33:46;31.60;99.90
2631;DHT22;1325;48.414;9.952;2022-08-05T09:36:15;31.50;99.90
2631;DHT22;1325;48.414;9.952;2022-08-05T09:38:54;31.70;99.90
2631;DHT22;1325;48.414;9.952;2022-08-05T09:41:23;32.50;99.90
2631;DHT22;1325;48.414;9.952;2022-08-05T09:43:50;33.10;99.90
2631;DHT22;1325;48.414;9.952;2022-08-05T09:46:31;32.60;99.90
2631;DHT22;1325;48.414;9.952;2022-08-05T09:49:00;32.30;99.90
2631;DHT22;1325;48.414;9.952;2022-08-05T09:51:34;32.80;99.90
2631;DHT22;1325;48.414;9.952;2022-08-05T09:54:03;33.70;99.90
2631;DHT22;1325;48.414;9.952;2022-08-05T09:56:34;32.90;99.90
2631;DHT22;1325;48.414;9.952;2022-08-05T09:59:06;32.70;99.90
2631;DHT22;1325;48.414;9.952;2022-08-05T10:01:38;33.20;99.90
2631;DHT22;1325;48.414;9.952;2022-08-05T10:04:10;32.80;99.90
2631;DHT22;1325;48.414;9.952;2022-08-05T10:06:38;32.90;99.90
2631;DHT22;1325;48.414;9.952;2022-08-05T10:09:11;33.30;99.50
2631;DHT22;1325;48.414;9.952;2022-08-05T10:11:39;32.80;99.90
2631;DHT22;1325;48.414;9.952;2022-08-05T10:14:20;31.90;99.90
2631;DHT22;1325;48.414;9.952;2022-08-05T10:16:49;32.30;99.90
2631;DHT22;1325;48.414;9.952;2022-08-05T10:19:17;32.20;99.90
2631;DHT22;1325;48.414;9.952;2022-08-05T10:21:44;32.70;99.90
2631;DHT22;1325;48.414;9.952;2022-08-05T10:24:14;33.00;98.00
2631;DHT22;1325;48.414;9.952;2022-08-05T10:26:43;31.80;99.90
2631;DHT22;1325;48.414;9.952;2022-08-05T10:29:12;31.30;99.90
2631;DHT22;1325;48.414;9.952;2022-08-05T10:31:39;31.00;99.90
2631;DHT22;1325;48.414;9.952;2022-08-05T10:34:09;30.80;99.90
2631;DHT22;1325;48.414;9.952;2022-08-05T10:36:37;30.80;99.90
2631;DHT22;1325;48.414;9.952;2022-08-05T10:39:09;31.50;99.90
2631;DHT22;1325;48.414;9.952;2022-08-05T10:41:42;32.00;99.90
2631;DHT22;1325;48.414;9.952;2022-08-05T10:44:16;32.20;99.90
2631;DHT22;1325;48.414;9.952;2022-08-05T10:46:46;31.70;99.90
2631;DHT22;1325;48.414;9.952;2022-08-05T10:49:16;32.50;99.90
2631;DHT22;1325;48.414;9.952;2022-08-05T10:51:45;31.60;99.00
2631;DHT22;1325;48.414;9.952;2022-08-05T10:54:14;31.00;99.90
2631;DHT22;1325;48.414;9.952;2022-08-05T10:56:44;30.20;99.90
2631;DHT22;1325;48.414;9.952;2022-08-05T10:59:16;29.80;99.90
2631;DHT22;1325;48.414;9.952;2022-08-05T11:01:44;29.50;99.90
2631;DHT22;1325;48.414;9.952;2022-08-05T11:04:13;29.40;99.90
2631;DHT22;1325;48.414;9.952;2022-08-05T11:07:02;30.30;99.90
2631;DHT22;1325;48.414;9.952;2022-08-05T11:09:37;30.60;99.90
2631;DHT22;1325;48.414;9.952;2022-08-05T11:12:43;31.00;99.90
2631;DHT22;1325;48.414;9.952;2022-08-05T11:15:19;30.70;99.90
2631;DHT22;1325;48.414;9.952;2022-08-05T11:17:48;31.30;99.90
2631;DHT22;1325;48.414;9.952;2022-08-05T11:20:34;31.20;99.90
2631;DHT22;1325;48.414;9.952;2022-08-05T11:23:31;30.80;99.90
2631;DHT22;1325;48.414;9.952;2022-08-05T11:26:05;30.70;99.90
2631;DHT22;1325;48.414;9.952;2022-08-05T11:28:46;30.50;99.90
2631;DHT22;1325;48.414;9.952;2022-08-05T11:31:25;30.40;99.90
2631;DHT22;1325;48.414;9.952;2022-08-05T11:34:02;30.80;99.90
2631;DHT22;1325;48.414;9.952;2022-08-05T11:36:47;31.00;99.90
2631;DHT22;1325;48.414;9.952;2022-08-05T11:42:22;31.20;99.90
2631;DHT22;1325;48.414;9.952;2022-08-05T11:44:59;31.80;99.10
2631;DHT22;1325;48.414;9.952;2022-08-05T11:47:27;31.60;99.20
2631;DHT22;1325;48.414;9.952;2022-08-05T11:49:56;31.50;99.10
2631;DHT22;1325;48.414;9.952;2022-08-05T11:52:26;31.60;99.90
2631;DHT22;1325;48.414;9.952;2022-08-05T11:54:54;31.10;99.90
2631;DHT22;1325;48.414;9.952;2022-08-05T11:57:27;31.40;99.90
2631;DHT22;1325;48.414;9.952;2022-08-05T11:59:56;31.50;99.90
2631;DHT22;1325;48.414;9.952;2022-08-05T12:02:26;31.10;99.90
2631;DHT22;1325;48.414;9.952;2022-08-05T12:04:56;31.10;99.00
2631;DHT22;1325;48.414;9.952;2022-08-05T12:07:24;31.20;99.90
2631;DHT22;1325;48.414;9.952;2022-08-05T12:09:52;31.10;99.90
2631;DHT22;1325;48.414;9.952;2022-08-05T12:12:21;30.90;99.90
2631;DHT22;1325;48.414;9.952;2022-08-05T12:14:49;31.20;99.90
2631;DHT22;1325;48.414;9.952;2022-08-05T12:17:17;31.50;99.90
2631;DHT22;1325;48.414;9.952;2022-08-05T12:19:47;31.70;98.60
2631;DHT22;1325;48.414;9.952;2022-08-05T12:22:17;31.60;98.30
2631;DHT22;1325;48.414;9.952;2022-08-05T12:24:47;31.20;99.90
2631;DHT22;1325;48.414;9.952;2022-08-05T12:27:20;30.80;98.70
2631;DHT22;1325;48.414;9.952;2022-08-05T12:29:58;30.70;99.90
2631;DHT22;1325;48.414;9.952;2022-08-05T12:32:30;30.70;99.90
2631;DHT22;1325;48.414;9.952;2022-08-05T12:34:57;30.70;99.90
2631;DHT22;1325;48.414;9.952;2022-08-05T12:37:25;30.90;99.90
2631;DHT22;1325;48.414;9.952;2022-08-05T12:39:56;30.60;99.90
2631;DHT22;1325;48.414;9.952;2022-08-05T12:42:27;30.50;99.90
2631;DHT22;1325;48.414;9.952;2022-08-05T12:45:01;30.60;99.90
2631;DHT22;1325;48.414;9.952;2022-08-05T12:47:32;30.60;99.90
2631;DHT22;1325;48.414;9.952;2022-08-05T12:50:00;31.00;99.00
2631;DHT22;1325;48.414;9.952;2022-08-05T12:52:38;31.20;99.90
2631;DHT22;1325;48.414;9.952;2022-08-05T12:55:15;30.90;99.90
2631;DHT22;1325;48.414;9.952;2022-08-05T12:57:43;30.90;98.90
2631;DHT22;1325;48.414;9.952;2022-08-05T13:00:19;31.40;97.70
2631;DHT22;1325;48.414;9.952;2022-08-05T13:02:48;31.40;99.90
2631;DHT22;1325;48.414;9.952;2022-08-05T13:05:16;31.60;99.90
2631;DHT22;1325;48.414;9.952;2022-08-05T13:07:44;30.80;99.00
2631;DHT22;1325;48.414;9.952;2022-08-05T13:10:16;30.80;99.90
2631;DHT22;1325;48.414;9.952;2022-08-05T13:12:44;30.60;99.90
2631;DHT22;1325;48.414;9.952;2022-08-05T13:15:12;31.10;99.90
2631;DHT22;1325;48.414;9.952;2022-08-05T13:17:40;31.20;99.90
2631;DHT22;1325;48.414;9.952;2022-08-05T13:20:20;31.50;99.60
2631;DHT22;1325;48.414;9.952;2022-08-05T13:22:49;31.30;99.90
2631;DHT22;1325;48.414;9.952;2022-08-05T13:25:19;30.60;99.20
2631;DHT22;1325;48.414;9.952;2022-08-05T13:27:47;31.00;99.90
2631;DHT22;1325;48.414;9.952;2022-08-05T13:30:17;31.60;98.50
2631;DHT22;1325;48.414;9.952;2022-08-05T13:32:46;31.90;96.60
2631;DHT22;1325;48.414;9.952;2022-08-05T13:35:16;31.80;96.60
2631;DHT22;1325;48.414;9.952;2022-08-05T13:37:43;31.40;98.00
2631;DHT22;1325;48.414;9.952;2022-08-05T13:40:11;31.40;97.50
2631;DHT22;1325;48.414;9.952;2022-08-05T13:42:39;31.40;97.30
2631;DHT22;1325;48.414;9.952;2022-08-05T13:45:07;31.00;99.30
2631;DHT22;1325;48.414;9.952;2022-08-05T13:47:35;30.90;97.00
2631;DHT22;1325;48.414;9.952;2022-08-05T13:50:04;31.00;97.50
2631;DHT22;1325;48.414;9.952;2022-08-05T13:52:33;31.20;97.70
2631;DHT22;1325;48.414;9.952;2022-08-05T13:55:00;31.50;98.20
2631;DHT22;1325;48.414;9.952;2022-08-05T13:57:28;31.60;97.70
2631;DHT22;1325;48.414;9.952;2022-08-05T13:59:55;31.40;96.60
2631;DHT22;1325;48.414;9.952;2022-08-05T14:02:22;31.30;95.80
2631;DHT22;1325;48.414;9.952;2022-08-05T14:04:49;31.30;97.50
2631;DHT22;1325;48.414;9.952;2022-08-05T14:07:37;31.10;97.70
2631;DHT22;1325;48.414;9.952;2022-08-05T14:10:06;31.10;97.20
2631;DHT22;1325;48.414;9.952;2022-08-05T14:12:33;31.20;97.00
2631;DHT22;1325;48.414;9.952;2022-08-05T14:15:01;31.00;96.60
2631;DHT22;1325;48.414;9.952;2022-08-05T14:17:28;31.00;95.80
2631;DHT22;1325;48.414;9.952;2022-08-05T14:19:55;31.10;96.50
2631;DHT22;1325;48.414;9.952;2022-08-05T14:22:22;31.20;97.70
2631;DHT22;1325;48.414;9.952;2022-08-05T14:24:51;30.30;99.30
2631;DHT22;1325;48.414;9.952;2022-08-05T14:27:19;30.30;99.90
2631;DHT22;1325;48.414;9.952;2022-08-05T14:29:46;30.30;99.60
2631;DHT22;1325;48.414;9.952;2022-08-05T14:32:13;30.60;98.70
2631;DHT22;1325;48.414;9.952;2022-08-05T14:34:40;31.10;96.70
2631;DHT22;1325;48.414;9.952;2022-08-05T14:37:07;31.30;96.50
2631;DHT22;1325;48.414;9.952;2022-08-05T14:39:35;31.40;99.20
2631;DHT22;1325;48.414;9.952;2022-08-05T14:42:03;31.80;98.10
2631;DHT22;1325;48.414;9.952;2022-08-05T14:44:31;31.70;95.90
2631;DHT22;1325;48.414;9.952;2022-08-05T14:46:58;31.70;96.50
2631;DHT22;1325;48.414;9.952;2022-08-05T14:49:25;31.50;97.60
2631;DHT22;1325;48.414;9.952;2022-08-05T14:51:52;31.60;96.40
2631;DHT22;1325;48.414;9.952;2022-08-05T14:54:19;31.40;95.90
2631;DHT22;1325;48.414;9.952;2022-08-05T14:56:46;31.20;97.90
2631;DHT22;1325;48.414;9.952;2022-08-05T14:59:15;31.10;98.70
2631;DHT22;1325;48.414;9.952;2022-08-05T15:01:42;31.40;95.20
2631;DHT22;1325;48.414;9.952;2022-08-05T15:04:11;31.40;96.10
2631;DHT22;1325;48.414;9.952;2022-08-05T15:06:38;31.50;97.80
2631;DHT22;1325;48.414;9.952;2022-08-05T15:09:05;31.60;96.80
2631;DHT22;1325;48.414;9.952;2022-08-05T15:11:32;31.50;96.70
2631;DHT22;1325;48.414;9.952;2022-08-05T15:14:01;31.60;95.20
2631;DHT22;1325;48.414;9.952;2022-08-05T15:16:30;31.70;95.30
2631;DHT22;1325;48.414;9.952;2022-08-05T15:18:57;31.80;97.60
2631;DHT22;1325;48.414;9.952;2022-08-05T15:21:24;31.90;96.30
2631;DHT22;1325;48.414;9.952;2022-08-05T15:23:51;31.60;98.70
2631;DHT22;1325;48.414;9.952;2022-08-05T15:26:18;31.50;97.60
2631;DHT22;1325;48.414;9.952;2022-08-05T15:28:46;31.50;97.60
2631;DHT22;1325;48.414;9.952;2022-08-05T15:31:13;31.90;95.70
2631;DHT22;1325;48.414;9.952;2022-08-05T15:33:42;31.70;96.40
2631;DHT22;1325;48.414;9.952;2022-08-05T15:36:09;32.00;93.90
2631;DHT22;1325;48.414;9.952;2022-08-05T15:38:36;31.60;95.70
2631;DHT22;1325;48.414;9.952;2022-08-05T15:41:03;31.60;96.60
2631;DHT22;1325;48.414;9.952;2022-08-05T15:43:31;31.90;94.40
2631;DHT22;1325;48.414;9.952;2022-08-05T15:45:58;31.60;95.90
2631;DHT22;1325;48.414;9.952;2022-08-05T15:48:25;31.60;95.00
2631;DHT22;1325;48.414;9.952;2022-08-05T15:50:55;31.50;94.70
2631;DHT22;1325;48.414;9.952;2022-08-05T15:53:22;31.50;95.60
2631;DHT22;1325;48.414;9.952;2022-08-05T15:55:49;31.40;95.60
2631;DHT22;1325;48.414;9.952;2022-08-05T15:58:17;31.30;94.30
2631;DHT22;1325;48.414;9.952;2022-08-05T16:00:44;31.20;95.00
2631;DHT22;1325;48.414;9.952;2022-08-05T16:03:11;31.30;95.70
2631;DHT22;1325;48.414;9.952;2022-08-05T16:05:39;31.30;98.40
2631;DHT22;1325;48.414;9.952;2022-08-05T16:08:07;31.20;96.70
2631;DHT22;1325;48.414;9.952;2022-08-05T16:10:34;31.30;94.60
2631;DHT22;1325;48.414;9.952;2022-08-05T16:13:02;31.20;94.40
2631;DHT22;1325;48.414;9.952;2022-08-05T16:15:29;31.00;97.10
2631;DHT22;1325;48.414;9.952;2022-08-05T16:17:56;31.00;98.10
2631;DHT22;1325;48.414;9.952;2022-08-05T16:20:23;31.20;96.80